Time;durP1;ratioP1;P1;durP2;ratioP2;P2;SDS_P1;SDS_P2;PMS_P1;PMS_P2;Temp;Humidity;BMP_temperature;BMP_pressure;BME280_temperature;BME280_humidity;BME280_pressure;Samples;Min_cycle;Max_cycle;Signal;HPM_P1;HPM_P2
2022/07/04 00:01:46;;;;;;;13.93;4.07;;;;;;;;;;6250166;22;20054;-84
2022/07/04 00:04:17;;;;;;;8.73;4.20;;;;;;;;;;6228804;22;20023;-86
2022/07/04 00:06:55;;;;;;;10.98;4.30;;;;;;;;;;6251492;22;20034;-88
2022/07/04 00:09:38;;;;;;;5.60;4.45;;;;;;;;;;6279969;22;20026;-87
2022/07/04 00:12:19;;;;;;;5.80;4.30;;;;;;;;;;6281316;22;20097;-90
2022/07/04 00:14:45;;;;;;;9.75;4.20;;;;;;;;;;6251469;22;20047;-88
2022/07/04 00:17:24;;;;;;;10.05;4.50;;;;;;;;;;6281979;22;20019;-84
2022/07/04 00:19:50;;;;;;;9.27;4.30;;;;;;;;;;6253186;22;20027;-84
2022/07/04 00:22:28;;;;;;;9.27;3.95;;;;;;;;;;6281722;22;20330;-83
2022/07/04 00:25:13;;;;;;;6.07;4.35;;;;;;;;;;6231409;22;20027;-88
2022/07/04 00:27:52;;;;;;;9.20;4.00;;;;;;;;;;6257584;22;20098;-84
2022/07/04 00:30:37;;;;;;;6.90;3.70;;;13.80;99.90;;;;;;6253384;22;20058;-89
2022/07/04 00:33:03;;;;;;;12.68;3.85;;;;;;;;;;6281628;22;20043;-85
2022/07/04 00:35:29;;;;;;;6.38;4.50;;;;;;;;;;6231140;22;20026;-87
2022/07/04 00:37:58;;;;;;;8.48;4.10;;;;;;;;;;6229508;22;20020;-86
2022/07/04 00:40:24;;;;;;;10.52;4.20;;;;;;;;;;6281010;22;20478;-84
2022/07/04 00:43:02;;;;;;;8.50;4.55;;;;;;;;;;6201100;22;20028;-83
2022/07/04 00:45:30;;;;;;;7.20;4.28;;;;;;;;;;6283856;22;20334;-88
2022/07/04 00:48:05;;;;;;;7.97;4.13;;;;;;;;;;6280657;22;20020;-90
2022/07/04 00:50:31;;;;;;;8.63;4.70;;;;;;;;;;6255586;22;20015;-90
2022/07/04 00:52:57;;;;;;;9.40;4.20;;;;;;;;;;6226361;22;20026;-85
2022/07/04 00:55:26;;;;;;;9.77;4.40;;;;;;;;;;6228825;22;20026;-91
2022/07/04 00:57:53;;;;;;;12.38;4.57;;;;;;;;;;6203772;22;20019;-86
2022/07/04 01:00:33;;;;;;;10.00;4.32;;;;;;;;;;6228578;22;20077;-82
2022/07/04 01:03:08;;;;;;;9.30;4.97;;;;;;;;;;6205760;22;20023;-85
2022/07/04 01:05:35;;;;;;;10.73;4.70;;;;;;;;;;6283254;22;20442;-85
2022/07/04 01:08:12;;;;;;;8.70;4.75;;;;;;;;;;6231189;22;20034;-84
2022/07/04 01:10:38;;;;;;;11.75;4.55;;;;;;;;;;6255629;22;20023;-85
2022/07/04 01:13:20;;;;;;;9.20;4.63;;;;;;;;;;6233035;22;20043;-84
2022/07/04 01:16:20;;;;;;;8.85;4.70;;;;;;;;;;6282236;22;20019;-85
2022/07/04 01:19:02;;;;;;;9.48;4.78;;;;;;;;;;6228820;22;20051;-84
2022/07/04 01:24:26;;;;;;;12.63;5.07;;;;;;;;;;6206556;22;20045;-88
2022/07/04 01:26:52;;;;;;;8.10;4.63;;;;;;;;;;6281376;22;20402;-86
2022/07/04 01:29:33;;;;;;;10.98;5.38;;;;;;;;;;6230621;22;20041;-87
2022/07/04 01:32:13;;;;;;;7.05;4.20;;;;;;;;;;6254299;22;20040;-83
2022/07/04 01:34:54;;;;;;;11.93;4.97;;;;;;;;;;6252790;22;20430;-87
2022/07/04 01:37:20;;;;;;;11.85;4.93;;;;;;;;;;6251236;22;20063;-84
2022/07/04 01:39:58;;;;;;;7.57;4.93;;;;;;;;;;6277783;22;20019;-83
2022/07/04 01:42:25;;;;;;;9.38;5.05;;;;;;;;;;6250961;22;20037;-84
2022/07/04 01:44:51;;;;;;;12.10;5.50;;;;;;;;;;6227645;22;20468;-86
2022/07/04 01:47:28;;;;;;;8.75;5.07;;;;;;;;;;6226024;22;20015;-84
2022/07/04 01:49:54;;;;;;;8.40;5.28;;;;;;;;;;6250658;22;20027;-83
2022/07/04 01:52:33;;;;;;;9.15;5.10;;;;;;;;;;6277936;22;20023;-83
2022/07/04 01:55:19;;;;;;;12.63;5.15;;;;;;;;;;6251250;22;20020;-84
2022/07/04 01:57:45;;;;;;;10.27;5.57;;;;;;;;;;6223427;22;20019;-85
2022/07/04 02:03:05;;;;;;;;;;;13.20;99.90;;;;;;6279424;22;20412;-84
2022/07/04 02:05:43;;;;;;;7.40;5.00;;;;;;;;;;6281011;22;20002;-83
2022/07/04 02:08:16;;;;;;;9.43;5.13;;;;;;;;;;6254770;22;20078;-87
2022/07/04 02:10:57;;;;;;;13.30;5.68;;;;;;;;;;6255105;22;20098;-88
2022/07/04 02:13:38;;;;;;;10.38;5.25;;;;;;;;;;6256334;22;20020;-87
2022/07/04 02:16:21;;;;;;;8.57;5.25;;;;;;;;;;6283974;22;20047;-89
2022/07/04 02:19:03;;;;;;;9.63;5.60;;;;;;;;;;6230760;22;20023;-89
2022/07/04 02:21:29;;;;;;;14.13;5.30;;;;;;;;;;6281833;22;20028;-90
2022/07/04 02:24:07;;;;;;;16.48;5.68;;;;;;;;;;6253317;22;20060;-88
2022/07/04 02:26:53;;;;;;;11.80;6.18;;;;;;;;;;6257297;22;20067;-89
2022/07/04 02:29:33;;;;;;;23.52;6.18;;;;;;;;;;6259383;22;20015;-84
2022/07/04 02:32:15;;;;;;;11.73;5.88;;;;;;;;;;6256779;22;20458;-90
2022/07/04 02:35:00;;;;;;;16.17;5.93;;;;;;;;;;6255591;22;20050;-84
2022/07/04 02:37:41;;;;;;;12.15;5.75;;;;;;;;;;6217709;23;20068;-88
2022/07/04 02:40:20;;;;;;;19.15;5.57;;;;;;;;;;6195736;23;20071;-85
2022/07/04 02:43:01;;;;;;;17.55;6.30;;;;;;;;;;6191028;23;20047;-89
2022/07/04 02:45:28;;;;;;;21.33;6.15;;;;;;;;;;6217799;23;20031;-89
2022/07/04 02:48:00;;;;;;;16.67;5.80;;;;;;;;;;6167278;23;20024;-88
2022/07/04 02:50:45;;;;;;;13.43;6.07;;;;;;;;;;6221354;23;20485;-88
2022/07/04 02:53:27;;;;;;;11.18;6.00;;;;;;;;;;6218168;23;20047;-86
2022/07/04 02:56:25;;;;;;;9.05;6.13;;;;;;;;;;6168776;23;20110;-83
2022/07/04 02:58:52;;;;;;;11.52;6.10;;;;;;;;;;6180851;23;20017;-85
2022/07/04 03:01:31;;;;;;;14.82;6.28;;;;;;;;;;6191617;23;20103;-86
2022/07/04 03:04:17;;;;;;;10.52;6.15;;;;;;;;;;6195915;23;20028;-84
2022/07/04 03:06:55;;;;;;;11.30;6.63;;;;;;;;;;6193350;23;20050;-82
2022/07/04 03:09:40;;;;;;;9.30;5.68;;;;;;;;;;6248620;22;20027;-88
2022/07/04 03:12:06;;;;;;;15.70;6.53;;;;;;;;;;6256097;22;20019;-85
2022/07/04 03:14:32;;;;;;;15.70;7.30;;;;;;;;;;6255919;22;20012;-90
2022/07/04 03:16:58;;;;;;;23.15;6.70;;;;;;;;;;6233077;22;20016;-90
2022/07/04 03:19:25;;;;;;;10.25;6.25;;;;;;;;;;6204950;22;20027;-90
2022/07/04 03:22:00;;;;;;;13.35;7.00;;;;;;;;;;6208110;22;20381;-88
2022/07/04 03:24:26;;;;;;;18.15;7.15;;;;;;;;;;6229612;22;20067;-88
2022/07/04 03:27:05;;;;;;;11.75;6.68;;;;;;;;;;6264994;22;20034;-92
2022/07/04 03:29:31;;;;;;;11.48;6.80;;;;;;;;;;6285815;22;20019;-90
2022/07/04 03:32:07;;;;;;;17.27;7.05;;;;;;;;;;6260579;22;20019;-91
2022/07/04 03:34:36;;;;;;;9.32;5.85;;;;;;;;;;6283382;22;20019;-88
2022/07/04 03:37:02;;;;;;;13.50;7.13;;;;;;;;;;6259207;22;20077;-87
2022/07/04 03:39:28;;;;;;;14.80;6.55;;;;;;;;;;6228517;22;20032;-85
2022/07/04 03:41:54;;;;;;;13.27;6.82;;;;;;;;;;6255760;22;20046;-86
2022/07/04 03:44:20;;;;;;;10.52;6.93;;;;;;;;;;6227201;22;20027;-83
2022/07/04 03:46:46;;;;;;;11.65;6.90;;;;;;;;;;6202907;22;20026;-87
2022/07/04 03:49:12;;;;;;;8.68;6.65;;;;;;;;;;6229060;22;20710;-85
2022/07/04 03:51:38;;;;;;;10.18;7.05;;;;;;;;;;6254561;22;20055;-85
2022/07/04 03:54:04;;;;;;;9.77;6.70;;;;;;;;;;6202262;22;20449;-85
2022/07/04 03:56:31;;;;;;;12.93;7.10;;;;;;;;;;6228342;22;20072;-84
2022/07/04 03:58:57;;;;;;;11.43;7.20;;;;;;;;;;6253700;22;20035;-89
2022/07/04 04:01:23;;;;;;;11.73;7.20;;;;;;;;;;6281251;22;20050;-90
2022/07/04 04:06:34;;;;;;;11.98;7.80;;;;;;;;;;6255186;22;20019;-90
2022/07/04 04:09:00;;;;;;;11.32;8.25;;;;;;;;;;6230985;22;20024;-86
2022/07/04 04:11:32;;;;;;;13.75;8.35;;;;;;;;;;6226475;22;20026;-91
2022/07/04 04:14:18;;;;;;;12.70;8.90;;;;;;;;;;6283927;22;20019;-87
2022/07/04 04:17:06;;;;;;;16.08;8.98;;;;;;;;;;6253716;22;20453;-91
2022/07/04 04:36:17;;;;;;;15.65;10.23;;;;;;;;;;6279575;22;20055;-84
2022/07/04 04:38:43;;;;;;;11.52;9.30;;;;;;;;;;6281691;22;20019;-88
2022/07/04 04:41:16;;;;;;;13.98;9.60;;;;;;;;;;6254026;22;20452;-86
2022/07/04 04:43:55;;;;;;;15.25;9.25;;;;;;;;;;6206868;22;20023;-88
2022/07/04 04:46:30;;;;;;;14.82;9.20;;;;;;;;;;6228984;22;20055;-90
2022/07/04 04:49:09;;;;;;;12.68;8.48;;;;;;;;;;6280016;22;20460;-86
2022/07/04 04:51:52;;;;;;;17.52;9.05;;;;;;;;;;6282936;22;20028;-90
2022/07/04 04:54:19;;;;;;;15.60;8.05;;;;;;;;;;6228216;22;20067;-85
2022/07/04 04:56:54;;;;;;;16.05;8.75;;;;;;;;;;6281884;22;20039;-87
2022/07/04 04:59:20;;;;;;;12.38;8.15;;;;;;;;;;6253277;22;20496;-87
2022/07/04 05:01:46;;;;;;;16.77;8.82;;;;;;;;;;6230632;22;20016;-86
2022/07/04 05:04:24;;;;;;;12.80;8.13;;;;;;;;;;6227036;22;20289;-83
2022/07/04 05:06:53;;;;;;;18.55;8.32;;;;;;;;;;6249054;22;20077;-85
2022/07/04 05:09:29;;;;;;;18.92;9.27;;;;;;;;;;6250900;22;20091;-83
2022/07/04 05:11:58;;;;;;;19.00;8.73;;;;;;;;;;6225964;22;20351;-85
2022/07/04 05:14:33;;;;;;;11.93;8.60;;;;;;;;;;6281052;22;20019;-86
2022/07/04 05:17:01;;;;;;;16.10;8.77;;;;;;;;;;6227484;22;20058;-87
2022/07/04 05:19:35;;;;;;;13.93;7.80;;;;;;;;;;6281141;22;20348;-86
2022/07/04 05:22:01;;;;;;;12.43;7.35;;;;;;;;;;6253577;22;20023;-85
2022/07/04 05:24:39;;;;;;;18.08;8.07;;;;;;;;;;6282033;22;20031;-84
2022/07/04 05:27:05;;;;;;;8.77;7.60;;;;;;;;;;6232740;22;20026;-83
2022/07/04 05:29:37;;;;;;;12.68;8.18;;;;;;;;;;6237131;22;20049;-85
2022/07/04 05:32:04;;;;;;;12.27;7.30;;;;;;;;;;6258656;22;20065;-89
2022/07/04 05:34:39;;;;;;;18.90;8.98;;;;;;;;;;6253285;22;20042;-88
2022/07/04 05:37:06;;;;;;;12.70;7.65;;;;;;;;;;6254669;22;20058;-88
2022/07/04 05:39:44;;;;;;;16.60;7.40;;;;;;;;;;6282458;22;20022;-88
2022/07/04 05:42:10;;;;;;;12.20;7.32;;;;;;;;;;6281872;22;20024;-88
2022/07/04 05:44:43;;;;;;;15.85;7.85;;;;;;;;;;6255726;22;20097;-83
2022/07/04 05:49:58;;;;;;;10.25;7.90;;;;;;;;;;6284084;22;20047;-86
2022/07/04 05:52:24;;;;;;;13.82;7.18;;;;;;;;;;6281286;22;20016;-86
2022/07/04 05:55:02;;;;;;;10.82;6.22;;;;;;;;;;6283405;22;20020;-87
2022/07/04 05:57:43;;;;;;;14.75;6.70;;;;;;;;;;6281040;22;20023;-85
2022/07/04 06:00:41;;;;;;;11.70;5.35;;;;;;;;;;6255909;22;20459;-84
2022/07/04 06:03:13;;;;;;;14.95;6.22;;;;;;;;;;6282997;22;20494;-89
2022/07/04 06:05:39;;;;;;;11.45;6.10;;;;;;;;;;6281082;22;20122;-87
2022/07/04 06:08:14;;;;;;;11.73;6.40;;;;;;;;;;6283243;22;20023;-84
2022/07/04 06:10:40;;;;;;;8.55;5.00;;;;;;;;;;6254994;22;20285;-89
2022/07/04 06:13:07;;;;;;;11.27;5.30;;;;;;;;;;6256335;22;20026;-90
2022/07/04 06:15:50;;;;;;;7.57;4.90;;;;;;;;;;6281152;22;20321;-87
2022/07/04 06:18:20;;;;;;;7.72;4.82;;;;;;;;;;6256804;22;20102;-88
2022/07/04 06:23:51;;;;;;;11.68;4.55;;;;;;;;;;6281521;22;20079;-86
2022/07/04 06:26:22;;;;;;;11.93;5.40;;;;;;;;;;6272342;22;20026;-86
2022/07/04 06:28:52;;;;;;;8.82;4.80;;;;;;;;;;6284368;22;20020;-88
2022/07/04 06:31:27;;;;;;;11.65;5.07;;;;;;;;;;6279163;22;20030;-88
2022/07/04 06:40:02;;;;;;;7.07;4.95;;;;;;;;;;6262437;22;20031;-86
2022/07/04 06:42:28;;;;;;;7.35;5.00;;;;;;;;;;6203517;22;20448;-87
2022/07/04 06:45:03;;;;;;;13.45;5.65;;;;;;;;;;6277709;22;20023;-86
2022/07/04 06:47:30;;;;;;;9.20;5.70;;;;;;;;;;6281736;22;20023;-87
2022/07/04 06:50:02;;;;;;;8.87;5.30;;;;;;;;;;6228279;22;20177;-87
2022/07/04 06:52:41;;;;;;;11.63;5.35;;;;;;;;;;6280661;22;20273;-84
2022/07/04 06:55:07;;;;;;;13.43;4.88;;;;;;;;;;6281027;22;20050;-90
2022/07/04 06:57:33;;;;;;;9.23;4.53;;;;;;;;;;6228844;22;20019;-88
2022/07/04 07:00:00;;;;;;;11.18;4.80;;;;;;;;;;6232957;22;20026;-89
2022/07/04 07:02:26;;;;;;;14.60;4.45;;;;;;;;;;6245303;22;20040;-88
2022/07/04 07:04:57;;;;;;;8.15;4.55;;;;;;;;;;6253388;22;20047;-87
2022/07/04 07:07:34;;;;;;;9.85;4.10;;;;;;;;;;6281361;22;20062;-90
2022/07/04 07:10:02;;;;;;;13.80;4.32;;;;;;;;;;6279667;22;20055;-89
2022/07/04 07:12:48;;;;;;;10.07;4.40;;;;;;;;;;6284553;22;20049;-90
2022/07/04 07:15:28;;;;;;;11.95;4.90;;;;;;;;;;6257502;22;20521;-87
2022/07/04 07:17:55;;;;;;;10.98;4.00;;;;;;;;;;6230673;22;20069;-87
2022/07/04 07:20:21;;;;;;;9.98;3.97;;;;;;;;;;6256920;22;20026;-88
2022/07/04 07:22:53;;;;;;;7.97;3.33;;;;;;;;;;6255736;22;20019;-88
2022/07/04 07:25:21;;;;;;;6.38;3.05;;;;;;;;;;6231111;22;20030;-91
2022/07/04 07:27:53;;;;;;;7.30;2.97;;;;;;;;;;6252503;22;20023;-83
2022/07/04 07:30:28;;;;;;;10.00;3.17;;;;;;;;;;6231340;22;20024;-84
2022/07/04 07:33:07;;;;;;;7.65;3.08;;;;;;;;;;6254426;22;20058;-87
2022/07/04 07:36:04;;;;;;;12.10;3.08;;;;;;;;;;6255934;22;20024;-88
2022/07/04 07:38:30;;;;;;;11.80;2.65;;;;;;;;;;6254063;22;20026;-89
2022/07/04 07:40:56;;;;;;;11.65;2.38;;;;;;;;;;6282556;22;20023;-84
2022/07/04 07:43:23;;;;;;;6.63;2.40;;;;;;;;;;6228403;22;20086;-88
2022/07/04 07:45:59;;;;;;;4.78;1.98;;;;;;;;;;6231063;22;20023;-91
2022/07/04 07:48:27;;;;;;;8.65;2.25;;;;;;;;;;6280662;22;20031;-85
2022/07/04 07:50:59;;;;;;;16.10;2.88;;;;;;;;;;6281939;22;20023;-83
2022/07/04 07:53:44;;;;;;;4.70;2.08;;;;;;;;;;6255085;22;20069;-91
2022/07/04 07:56:10;;;;;;;7.18;2.70;;;;;;;;;;6279317;22;20019;-88
2022/07/04 08:01:06;;;;;;;5.35;2.58;;;;;;;;;;6286119;22;20028;-87
2022/07/04 08:06:35;;;;;;;5.93;2.28;;;;;;;;;;6263654;22;20023;-85
2022/07/04 08:09:19;;;;;;;4.72;1.95;;;;;;;;;;6255346;22;20038;-84
2022/07/04 08:11:58;;;;;;;6.15;2.10;;;;;;;;;;6254691;22;20034;-85
2022/07/04 08:14:30;;;;;;;4.97;2.25;;;;;;;;;;6257222;22;20102;-86
2022/07/04 08:17:00;;;;;;;10.05;2.30;;;;;;;;;;6291644;22;20027;-85
2022/07/04 08:19:27;;;;;;;13.98;2.50;;;;;;;;;;6293642;22;20025;-87
2022/07/04 08:22:05;;;;;;;8.00;2.40;;;;;;;;;;6292963;22;20046;-84
2022/07/04 08:24:31;;;;;;;6.60;2.30;;;;;;;;;;6295233;22;20023;-87
2022/07/04 08:27:16;;;;;;;5.82;2.40;;;;;;;;;;6293808;22;20063;-88
2022/07/04 08:29:52;;;;;;;6.05;2.38;;;;;;;;;;6261741;22;20019;-87
2022/07/04 08:32:18;;;;;;;9.48;2.42;;;;;;;;;;6258193;22;20028;-86
2022/07/04 08:35:00;;;;;;;7.78;2.28;;;;;;;;;;6260323;22;20016;-87
2022/07/04 08:38:00;;;;;;;5.20;2.17;;;;;;;;;;6161419;23;20050;-87
2022/07/04 08:41:00;;;;;;;9.40;2.88;;;;;;;;;;6138402;23;20053;-87
2022/07/04 08:43:42;;;;;;;9.60;2.50;;;;;;;;;;6233764;22;20091;-84
2022/07/04 08:46:28;;;;;;;13.02;2.45;;;;;;;;;;6251717;22;20034;-85
2022/07/04 08:49:30;;;;;;;5.82;2.42;;;19.10;99.90;;;;;;6277235;22;20027;-86
2022/07/04 08:51:58;;;;;;;;;;;;;;;;;;6211802;22;20517;-87
2022/07/04 09:03:55;;;;;;;3.80;1.70;;;;;;;;;;6254487;22;20070;-86
2022/07/04 09:06:38;;;;;;;9.88;2.20;;;;;;;;;;6254390;22;20065;-87
2022/07/04 09:09:17;;;;;;;5.85;1.90;;;;;;;;;;6280806;22;20122;-88
2022/07/04 09:11:43;;;;;;;4.32;1.40;;;;;;;;;;6280952;22;20028;-89
2022/07/04 09:14:43;;;;;;;8.07;1.67;;;;;;;;;;6231842;22;20043;-90
2022/07/04 09:17:21;;;;;;;5.30;1.85;;;;;;;;;;6256097;22;20027;-91
2022/07/04 09:20:15;;;;;;;5.85;1.88;;;;;;;;;;6256235;22;20074;-87
2022/07/04 09:22:42;;;;;;;4.43;1.40;;;;;;;;;;6280674;22;20043;-90
2022/07/04 09:25:21;;;;;;;5.03;1.70;;;;;;;;;;6282966;22;20012;-88
2022/07/04 09:28:03;;;;;;;6.93;1.38;;;;;;;;;;6255613;22;20023;-90
2022/07/04 09:30:30;;;;;;;3.92;1.30;;;;;;;;;;6283230;22;20031;-88
2022/07/04 09:33:05;;;;;;;2.72;1.23;;;;;;;;;;6280923;22;20023;-88
2022/07/04 09:35:33;;;;;;;3.72;1.38;;;;;;;;;;6283526;22;20515;-90
2022/07/04 09:38:31;;;;;;;2.35;1.08;;;;;;;;;;6282165;22;20019;-89
2022/07/04 09:44:07;;;;;;;1.63;1.00;;;;;;;;;;6282868;22;20416;-87
2022/07/04 09:46:49;;;;;;;2.80;1.00;;;;;;;;;;6283634;22;20098;-89
2022/07/04 09:49:30;;;;;;;1.98;1.00;;;;;;;;;;6282350;22;20080;-88
2022/07/04 09:52:12;;;;;;;2.13;1.00;;;;;;;;;;6281638;22;20078;-89
2022/07/04 09:54:57;;;;;;;3.17;1.20;;;;;;;;;;6256529;22;20021;-85
2022/07/04 09:57:35;;;;;;;1.05;0.80;;;;;;;;;;6283151;22;20047;-89
2022/07/04 10:03:40;;;;;;;7.50;0.97;;;;;;;;;;6282461;22;20038;-88
2022/07/04 10:06:25;;;;;;;1.80;0.90;;;;;;;;;;6280141;22;20246;-87
2022/07/04 10:09:15;;;;;;;6.22;1.52;;;;;;;;;;6253704;22;20031;-87
2022/07/04 10:11:45;;;;;;;3.65;0.93;;;;;;;;;;6280817;22;20026;-88
2022/07/04 10:14:18;;;;;;;1.98;0.90;;;;;;;;;;6253169;22;20020;-87
2022/07/04 10:16:53;;;;;;;2.08;0.98;;;;;;;;;;6280647;22;20034;-89
2022/07/04 10:19:35;;;;;;;2.40;0.95;;;;;;;;;;6278297;22;20023;-88
2022/07/04 10:22:04;;;;;;;3.70;1.25;;;;;;;;;;6278125;22;20035;-86
2022/07/04 10:24:46;;;;;;;1.45;0.90;;;;;;;;;;6278929;22;20038;-86
2022/07/04 10:27:18;;;;;;;2.45;1.00;;;;;;;;;;6251084;22;20477;-85
2022/07/04 10:29:44;;;;;;;3.45;1.10;;;;;;;;;;6253567;22;20063;-88
2022/07/04 10:32:12;;;;;;;2.35;0.90;;;;;;;;;;6252247;22;20031;-86
2022/07/04 10:35:03;;;;;;;1.83;0.80;;;;;;;;;;6253017;22;20023;-87
2022/07/04 10:37:57;;;;;;;3.33;1.30;;;;;;;;;;6281627;22;20035;-88
2022/07/04 10:40:48;;;;;;;3.90;1.10;;;;;;;;;;6281009;22;20016;-86
2022/07/04 10:46:15;;;;;;;3.70;1.15;;;;;;;;;;6278901;22;20037;-90
2022/07/04 10:49:16;;;;;;;1.40;1.02;;;;;;;;;;6253426;22;20023;-90
2022/07/04 10:52:01;;;;;;;2.83;1.10;;;;;;;;;;6278271;22;20020;-86
2022/07/04 11:04:02;;;;;;;4.15;1.50;;;;;;;;;;6215765;23;20023;-89
2022/07/04 11:06:52;;;;;;;2.90;1.20;;;;;;;;;;6172272;23;20178;-88
2022/07/04 11:09:18;;;;;;;3.25;1.05;;;;;;;;;;6219488;23;20035;-91
2022/07/04 11:12:06;;;;;;;4.65;1.40;;;;;;;;;;6172442;23;20401;-90
2022/07/04 11:14:54;;;;;;;3.15;1.10;;;;;;;;;;6220486;23;20115;-89
2022/07/04 11:20:59;;;;;;;4.65;1.15;;;;;;;;;;6195483;23;20033;-87
2022/07/04 11:23:25;;;;;;;8.20;1.75;;;;;;;;;;6192277;23;20031;-88
2022/07/04 11:26:04;;;;;;;2.88;1.30;;;;;;;;;;6168050;23;20020;-87
2022/07/04 11:28:47;;;;;;;2.42;1.13;;;;;;;;;;6169767;23;20122;-84
2022/07/04 11:31:28;;;;;;;3.92;1.30;;;;;;;;;;6194905;23;20021;-87
2022/07/04 11:34:32;;;;;;;4.20;1.35;;;;;;;;;;6196065;23;20027;-86
2022/07/04 11:37:01;;;;;;;2.15;1.13;;;;;;;;;;6218808;23;20056;-86
2022/07/04 11:46:13;;;;;;;3.17;1.30;;;;;;;;;;6191359;23;20072;-87
2022/07/04 11:48:39;;;;;;;2.25;0.98;;;;;;;;;;6140937;23;20446;-89
2022/07/04 11:51:27;;;;;;;4.63;1.10;;;;;;;;;;6190377;23;20025;-87
2022/07/04 11:54:07;;;;;;;28.58;3.00;;;;;;;;;;6167443;23;20024;-89
2022/07/04 11:56:39;;;;;;;5.60;1.38;;;;;;;;;;6199353;23;20024;-85
2022/07/04 11:59:12;;;;;;;2.95;0.90;;;;;;;;;;6197701;23;20448;-87
2022/07/04 12:02:18;;;;;;;4.22;1.13;;;;;;;;;;6198852;23;20071;-88
2022/07/04 12:04:47;;;;;;;6.35;1.23;;;;;;;;;;6220777;23;20024;-85
2022/07/04 12:07:32;;;;;;;2.22;1.17;;;23.20;99.90;;;;;;6194964;23;20027;-88
2022/07/04 12:10:33;;;;;;;3.58;0.85;;;;;;;;;;6201110;23;20024;-86
2022/07/04 12:13:07;;;;;;;1.90;0.82;;;;;;;;;;6244665;23;20051;-88
2022/07/04 12:15:38;;;;;;;3.35;0.98;;;;;;;;;;6219440;23;20020;-87
2022/07/04 12:18:19;;;;;;;4.53;0.80;;;;;;;;;;6223504;23;20535;-87
2022/07/04 12:21:01;;;;;;;3.85;1.65;;;;;;;;;;6222626;23;20024;-87
2022/07/04 12:23:28;;;;;;;6.82;1.00;;;;;;;;;;6226522;23;20051;-88
2022/07/04 12:26:36;;;;;;;6.65;0.80;;;;;;;;;;6173149;23;20025;-91
2022/07/04 12:32:52;;;;;;;4.65;0.80;;;;;;;;;;6220763;23;20102;-89
2022/07/04 12:38:28;;;;;;;2.40;0.95;;;;;;;;;;6192321;23;20016;-90
2022/07/04 12:40:54;;;;;;;1.70;0.82;;;;;;;;;;6214858;23;20055;-91
2022/07/04 12:43:51;;;;;;;4.97;0.93;;;;;;;;;;6192696;23;20368;-91
2022/07/04 12:49:24;;;;;;;3.08;0.90;;;;;;;;;;6215318;23;20081;-87
2022/07/04 12:55:10;;;;;;;2.83;1.08;;;;;;;;;;6190630;23;20067;-91
2022/07/04 12:57:36;;;;;;;4.35;1.17;;;;;;;;;;6170985;23;20025;-89
2022/07/04 13:00:12;;;;;;;4.63;1.08;;;;;;;;;;6131129;23;20017;-88
2022/07/04 13:02:45;;;;;;;5.93;1.33;;;;;;;;;;6137836;23;20028;-86
2022/07/04 13:05:27;;;;;;;3.53;1.25;;;;;;;;;;6138494;23;20040;-91
2022/07/04 13:08:03;;;;;;;3.45;0.90;;;;;;;;;;6167288;23;20024;-84
2022/07/04 13:10:52;;;;;;;;;;;;;;;;;;;;;
2022/07/04 13:13:36;;;;;;;4.00;1.23;;;;;;;;;;6189251;23;20021;-86
2022/07/04 13:16:02;;;;;;;7.15;0.80;;;;;;;;;;6141555;23;20028;-91
2022/07/04 13:18:46;;;;;;;2.53;0.80;;;;;;;;;;6138989;23;20021;-85
2022/07/04 13:21:13;;;;;;;2.42;0.60;;;;;;;;;;6094691;23;20032;-86
2022/07/04 13:23:52;;;;;;;11.75;1.80;;;;;;;;;;6160779;23;20451;-91
2022/07/04 13:26:18;;;;;;;4.57;1.20;;;;;;;;;;6185227;23;20021;-90
2022/07/04 13:28:53;;;;;;;2.55;0.77;;;;;;;;;;6158325;23;20060;-79
2022/07/04 13:31:19;;;;;;;3.55;0.93;;;;;;;;;;6160522;23;20024;-89
2022/07/04 13:33:53;;;;;;;8.93;0.93;;;;;;;;;;6185300;23;20032;-84
2022/07/04 13:36:29;;;;;;;6.00;1.05;;;;;;;;;;6186671;23;20048;-86
2022/07/04 13:39:16;;;;;;;4.65;1.30;;;;;;;;;;6219012;23;20364;-85
2022/07/04 13:41:45;;;;;;;8.38;1.27;;;;;;;;;;6219800;23;20472;-86
2022/07/04 13:44:15;;;;;;;2.08;1.02;;;;;;;;;;6220878;23;20025;-85
2022/07/04 13:46:56;;;;;;;3.67;0.70;;;;;;;;;;6190834;23;20040;-87
2022/07/04 13:49:34;;;;;;;3.33;1.02;;;;;;;;;;6220573;23;20567;-90
2022/07/04 13:52:00;;;;;;;1.90;0.60;;;;;;;;;;6144354;23;20031;-86
2022/07/04 13:54:42;;;;;;;2.08;0.80;;;;;;;;;;6191603;23;20548;-86
2022/07/04 13:57:32;;;;;;;8.05;0.93;;;;;;;;;;6191620;23;20080;-87
2022/07/04 13:59:58;;;;;;;4.93;0.98;;;;;;;;;;6193157;23;20033;-89
2022/07/04 14:02:41;;;;;;;3.50;0.95;;;;;;;;;;6194818;23;20031;-91
2022/07/04 14:05:14;;;;;;;3.03;1.45;;;;;;;;;;6166898;23;20637;-88
2022/07/04 14:08:10;;;;;;;2.38;0.90;;;;;;;;;;6191470;23;20021;-86
2022/07/04 14:10:37;;;;;;;3.55;1.00;;;;;;;;;;6159803;23;20051;-81
2022/07/04 14:13:06;;;;;;;3.42;1.10;;;;;;;;;;6212798;23;20023;-91
2022/07/04 14:15:34;;;;;;;2.10;0.93;;;;;;;;;;6221160;23;20041;-87
2022/07/04 14:18:06;;;;;;;4.20;1.15;;;;;;;;;;6219104;23;20406;-88
2022/07/04 14:20:39;;;;;;;3.45;0.95;;;;;;;;;;6192870;23;20095;-87
2022/07/04 14:23:06;;;;;;;1.65;0.70;;;;;;;;;;6216847;23;20483;-91
2022/07/04 14:25:41;;;;;;;1.70;0.65;;;;;;;;;;6220276;23;20029;-88
2022/07/04 14:28:10;;;;;;;3.40;1.25;;;;;;;;;;6215622;23;20020;-88
2022/07/04 14:30:49;;;;;;;3.42;0.70;;;;;;;;;;6190150;23;20096;-83
2022/07/04 14:33:15;;;;;;;2.08;0.90;;;;;;;;;;6189942;23;20062;-87
2022/07/04 14:35:59;;;;;;;2.90;0.85;;;;;;;;;;6215923;23;20020;-82
2022/07/04 14:41:17;;;;;;;3.05;1.02;;;;;;;;;;6280365;22;20043;-85
2022/07/04 14:44:12;;;;;;;2.20;0.90;;;;;;;;;;6230203;22;20020;-84
2022/07/04 14:47:04;;;;;;;3.38;1.00;;;;;;;;;;6256904;22;20069;-90
2022/07/04 14:49:33;;;;;;;2.85;0.80;;;;;;;;;;6279433;22;20075;-86
2022/07/04 14:52:33;;;;;;;7.95;0.75;;;;;;;;;;6284595;22;20071;-86
2022/07/04 14:54:59;;;;;;;2.65;0.82;;;;;;;;;;6284384;22;20066;-85
2022/07/04 14:57:59;;;;;;;1.80;0.88;;;;;;;;;;6258321;22;20015;-84
2022/07/04 15:01:03;;;;;;;2.72;0.80;;;;;;;;;;6285448;22;20024;-90
2022/07/04 15:03:48;;;;;;;3.17;1.20;;;;;;;;;;6290790;22;20034;-87
2022/07/04 15:06:17;;;;;;;3.67;0.70;;;;;;;;;;6232466;22;20110;-88
2022/07/04 15:12:11;;;;;;;3.33;0.70;;;;;;;;;;6290659;22;20150;-90
2022/07/04 15:14:43;;;;;;;3.20;0.70;;;;;;;;;;6287772;22;20062;-87
2022/07/04 15:17:22;;;;;;;2.70;0.80;;;;;;;;;;6288018;22;20354;-90
2022/07/04 15:25:50;;;;;;;4.07;0.70;;;;;;;;;;6269412;22;20020;-90
2022/07/04 15:28:17;;;;;;;3.70;0.90;;;;;;;;;;6234438;22;20353;-89
2022/07/04 15:30:55;;;;;;;2.78;0.70;;;;;;;;;;6236677;22;20019;-91
2022/07/04 15:33:25;;;;;;;2.45;0.77;;;;;;;;;;6258512;22;20038;-92
2022/07/04 15:36:04;;;;;;;2.50;0.88;;;;;;;;;;6288670;22;20020;-86
2022/07/04 15:38:33;;;;;;;4.53;0.90;;;;;;;;;;6234663;22;20024;-90
2022/07/04 15:41:02;;;;;;;1.73;0.70;;;;;;;;;;6288863;22;20090;-87
2022/07/04 15:43:30;;;;;;;1.42;0.65;;;;;;;;;;6259870;22;20024;-86
2022/07/04 15:48:34;;;;;;;3.65;0.60;;;;;;;;;;6252877;22;20020;-84
2022/07/04 15:51:13;;;;;;;4.32;0.98;;;;;;;;;;6246246;23;20027;-87
2022/07/04 15:53:48;;;;;;;4.20;1.10;;;;;;;;;;6250070;23;20034;-86
2022/07/04 15:56:23;;;;;;;3.22;0.80;;;;;;;;;;6246056;23;20405;-89
2022/07/04 16:01:31;;;;;;;2.70;0.60;;;;;;;;;;6295288;22;20034;-88
2022/07/04 16:03:57;;;;;;;2.22;0.60;;;;;;;;;;6235784;22;20019;-86
2022/07/04 16:09:43;;;;;;;1.85;0.50;;;;;;;;;;6202032;22;20471;-87
2022/07/04 16:12:13;;;;;;;3.00;0.70;;;;;;;;;;6218478;22;20031;31
2022/07/04 16:18:21;;;;;;;3.35;0.60;;;;;;;;;;6311808;22;20041;-85
2022/07/04 16:20:47;;;;;;;4.32;0.60;;;;;;;;;;6261778;22;20023;-91
2022/07/04 16:23:13;;;;;;;1.45;0.60;;;;;;;;;;6309929;22;20078;-89
2022/07/04 16:28:41;;;;;;;8.75;0.98;;;;;;;;;;6260267;22;20042;-84
2022/07/04 16:31:13;;;;;;;2.50;0.50;;;;;;;;;;6253500;22;20285;-88
2022/07/04 16:33:48;;;;;;;1.85;0.60;;;;;;;;;;6229858;22;20047;-89
2022/07/04 16:36:15;;;;;;;2.47;0.70;;;;;;;;;;6229346;22;20098;-87
2022/07/04 16:38:42;;;;;;;2.17;0.70;;;;;;;;;;6284843;22;20075;-83
2022/07/04 16:41:17;;;;;;;4.40;0.70;;;;;;;;;;6228198;22;20108;-88
2022/07/04 16:43:43;;;;;;;1.00;0.50;;;;;;;;;;6251826;22;20085;-91
2022/07/04 16:46:09;;;;;;;1.58;0.60;;;;;;;;;;6249452;22;20440;-88
2022/07/04 16:49:04;;;;;;;2.10;0.65;;;;;;;;;;6235568;22;20045;-87
2022/07/04 16:51:31;;;;;;;4.85;0.88;;;;;;;;;;6256563;22;20023;-87
2022/07/04 16:53:58;;;;;;;5.35;0.70;;;;;;;;;;6259251;22;20027;-87
2022/07/04 16:56:50;;;;;;;4.90;0.70;;;;;;;;;;6234828;22;20505;-86
2022/07/04 16:59:50;;;;;;;3.92;0.88;;;;;;;;;;6230063;22;20011;-87
2022/07/04 17:04:57;;;;;;;3.35;0.50;;;;;;;;;;6285304;22;20065;-87
2022/07/04 17:07:30;;;;;;;2.45;0.55;;;;;;;;;;6255847;22;20020;-85
2022/07/04 17:09:56;;;;;;;0.73;0.50;;;;;;;;;;6284906;22;20020;-92
2022/07/04 17:12:24;;;;;;;2.92;0.68;;;;;;;;;;6235481;22;20023;-89
2022/07/04 17:14:52;;;;;;;1.85;0.57;;;;;;;;;;6259881;22;20347;-87
2022/07/04 17:17:32;;;;;;;6.28;0.70;;;;;;;;;;6287998;22;20016;-88
2022/07/04 17:20:00;;;;;;;3.08;0.70;;;;;;;;;;6261381;22;20030;-88
2022/07/04 17:22:28;;;;;;;1.15;0.40;;;;;;;;;;6236885;22;20022;-88
2022/07/04 17:24:54;;;;;;;2.92;0.70;;;;;;;;;;6234424;22;20030;-86
2022/07/04 19:31:12;;;;;;;2.60;1.73;;;;;;;;;;6219480;23;20032;-84
2022/07/04 19:33:53;;;;;;;4.68;2.13;;;;;;;;;;6221652;23;20255;-86